TimeCDT,TemperatureF,Dew PointF,Humidity,Sea Level PressureIn,VisibilityMPH,Wind Direction,Wind SpeedMPH,Gust SpeedMPH,PrecipitationIn,Events,Conditions,WindDirDegrees,DateUTC
12:56 AM,70.0,66.9,90,30.20,8.0,SE,6.9,-,N/A,,Clear,140,2013-09-18 05:56:00
1:56 AM,68.9,65.8,90,30.19,8.0,SE,8.1,-,N/A,,Clear,130,2013-09-18 06:56:00
2:56 AM,68.0,64.9,90,30.19,8.0,ESE,6.9,-,N/A,,Clear,120,2013-09-18 07:56:00
3:56 AM,66.9,63.9,90,30.19,10.0,SE,5.8,-,N/A,,Clear,130,2013-09-18 08:56:00
4:56 AM,66.9,63.9,90,30.21,10.0,SE,4.6,-,N/A,,Clear,130,2013-09-18 09:56:00
5:56 AM,65.8,63.0,90,30.22,10.0,SE,6.9,-,N/A,,Partly Cloudy,140,2013-09-18 10:56:00
6:56 AM,65.8,63.0,90,30.22,10.0,SE,8.1,-,N/A,,Scattered Clouds,140,2013-09-18 11:56:00
7:20 AM,66.2,62.6,88,30.19,10.0,SE,9.2,-,N/A,,Mostly Cloudy,130,2013-09-18 12:20:00
7:56 AM,66.9,63.0,87,30.23,10.0,SE,6.9,-,N/A,,Mostly Cloudy,130,2013-09-18 12:56:00
8:19 AM,69.8,62.6,78,30.20,10.0,SE,5.8,-,N/A,,Scattered Clouds,130,2013-09-18 13:19:00
8:56 AM,70.9,63.0,76,30.25,10.0,SE,8.1,-,N/A,,Mostly Cloudy,140,2013-09-18 13:56:00
9:26 AM,71.6,64.4,78,30.22,10.0,SE,8.1,-,N/A,,Scattered Clouds,140,2013-09-18 14:26:00
9:56 AM,73.9,63.9,71,30.25,10.0,SSE,10.4,17.3,N/A,,Clear,160,2013-09-18 14:56:00
10:56 AM,77.0,64.9,66,30.24,10.0,SE,9.2,-,N/A,,Clear,140,2013-09-18 15:56:00
11:48 AM,78.8,66.2,65,30.20,10.0,South,13.8,-,N/A,,Mostly Cloudy,190,2013-09-18 16:48:00
11:56 AM,79.9,65.8,62,30.23,10.0,South,10.4,-,N/A,,Scattered Clouds,190,2013-09-18 16:56:00
12:12 PM,78.8,66.2,65,30.20,10.0,SSE,8.1,-,N/A,,Mostly Cloudy,160,2013-09-18 17:12:00
12:56 PM,79.9,66.9,64,30.22,10.0,SSE,8.1,-,N/A,,Mostly Cloudy,150,2013-09-18 17:56:00
1:56 PM,79.0,66.9,66,30.20,10.0,Calm,Calm,-,N/A,,Mostly Cloudy,0,2013-09-18 18:56:00
2:41 PM,80.6,66.2,61,30.15,10.0,Calm,Calm,-,N/A,,Overcast,0,2013-09-18 19:41:00
2:56 PM,79.9,66.9,64,30.18,10.0,Variable,5.8,-,N/A,,Mostly Cloudy,0,2013-09-18 19:56:00
3:56 PM,81.0,68.0,65,30.17,10.0,Calm,Calm,-,N/A,,Scattered Clouds,0,2013-09-18 20:56:00
4:56 PM,81.9,68.0,63,30.16,10.0,Variable,3.5,-,N/A,,Clear,0,2013-09-18 21:56:00
5:56 PM,79.9,68.0,67,30.15,10.0,Variable,4.6,-,N/A,,Clear,0,2013-09-18 22:56:00
6:56 PM,74.8,68.0,79,30.16,10.0,Calm,Calm,-,N/A,,Clear,0,2013-09-18 23:56:00
7:56 PM,72.9,68.0,85,30.16,10.0,Calm,Calm,-,N/A,,Clear,0,2013-09-19 00:56:00
8:56 PM,72.0,66.9,84,30.18,10.0,Calm,Calm,-,N/A,,Clear,0,2013-09-19 01:56:00
9:56 PM,70.9,66.9,87,30.18,10.0,ESE,3.5,-,N/A,,Clear,120,2013-09-19 02:56:00
10:56 PM,70.9,65.8,84,30.18,10.0,SE,6.9,-,N/A,,Clear,130,2013-09-19 03:56:00
11:56 PM,70.9,65.8,84,30.17,10.0,SE,5.8,-,N/A,,Clear,140,2013-09-19 04:56:00